Time;durP1;ratioP1;P1;durP2;ratioP2;P2;SDS_P1;SDS_P2;PMS_P1;PMS_P2;Temp;Humidity;BMP_temperature;BMP_pressure;BME280_temperature;BME280_humidity;BME280_pressure;Samples;Min_cycle;Max_cycle;Signal;HPM_P1;HPM_P2
2022/12/31 00:00:29;;;;;;;1.05;0.60;;;17.60;51.10;;;;;;4960388;28;20266;-85
2022/12/31 00:02:55;;;;;;;0.50;0.50;;;17.60;51.20;;;;;;4944815;28;20258;-85
2022/12/31 00:05:21;;;;;;;1.27;0.68;;;17.60;51.20;;;;;;4977010;28;20157;-85
2022/12/31 00:07:47;;;;;;;1.70;0.80;;;17.60;51.30;;;;;;4916658;28;1279038;-85
2022/12/31 00:10:13;;;;;;;1.85;0.63;;;17.60;51.20;;;;;;4945252;28;20418;-85
2022/12/31 00:12:38;;;;;;;1.80;0.70;;;17.60;51.20;;;;;;4945310;28;20558;-85
2022/12/31 00:15:05;;;;;;;0.73;0.60;;;17.60;51.20;;;;;;4945031;28;20190;-84
2022/12/31 00:17:30;;;;;;;0.98;0.57;;;17.60;51.30;;;;;;4961298;28;20167;-85
2022/12/31 00:19:56;;;;;;;2.08;0.60;;;17.60;51.30;;;;;;4945295;28;20270;-85
2022/12/31 00:22:22;;;;;;;1.42;0.70;;;17.50;51.20;;;;;;4960740;28;20540;-85
2022/12/31 00:24:47;;;;;;;0.73;0.73;;;17.60;51.20;;;;;;4960943;28;20202;-85
2022/12/31 00:27:13;;;;;;;0.68;0.60;;;17.50;51.70;;;;;;4994533;28;20156;-85
2022/12/31 00:29:39;;;;;;;1.35;0.90;;;17.60;51.20;;;;;;4960716;28;20152;-86
2022/12/31 00:32:05;;;;;;;1.05;0.60;;;17.60;51.10;;;;;;4976851;28;20195;-85
2022/12/31 00:34:30;;;;;;;0.70;0.68;;;17.60;51.20;;;;;;4976935;28;20164;-85
2022/12/31 00:36:56;;;;;;;0.65;0.63;;;17.60;51.20;;;;;;4976773;28;20164;-85
2022/12/31 00:39:22;;;;;;;0.60;0.60;;;17.60;51.20;;;;;;4945237;28;20180;-85
2022/12/31 00:41:47;;;;;;;1.00;0.60;;;17.50;51.00;;;;;;4994194;28;20184;-85
2022/12/31 00:44:13;;;;;;;1.33;0.60;;;17.60;51.20;;;;;;4960570;28;20247;-85
2022/12/31 00:46:39;;;;;;;2.38;0.82;;;17.60;51.20;;;;;;4944502;28;20176;-85
2022/12/31 00:49:05;;;;;;;1.30;0.60;;;17.60;51.20;;;;;;4944568;28;20627;-86
2022/12/31 00:51:30;;;;;;;1.20;0.70;;;17.60;51.20;;;;;;4960790;28;20639;-85
2022/12/31 00:53:56;;;;;;;0.77;0.70;;;17.50;51.20;;;;;;4960425;28;20187;-85
2022/12/31 00:56:23;;;;;;;0.93;0.68;;;17.50;51.10;;;;;;4945696;28;20175;-86
2022/12/31 00:58:49;;;;;;;1.20;0.80;;;17.50;51.20;;;;;;4960653;28;20178;-85
2022/12/31 01:01:20;;;;;;;1.30;0.70;;;17.50;51.30;;;;;;4960804;28;20547;-85
2022/12/31 01:03:46;;;;;;;1.17;0.60;;;17.50;51.20;;;;;;4960759;28;20238;-85
2022/12/31 01:06:12;;;;;;;0.90;0.60;;;17.50;51.20;;;;;;4976778;28;20165;-85
2022/12/31 01:08:38;;;;;;;0.98;0.70;;;17.50;51.20;;;;;;4944496;28;20682;-85
2022/12/31 01:13:41;;;;;;;0.88;0.60;;;17.50;51.20;;;;;;4963571;28;20210;-85
2022/12/31 01:16:08;;;;;;;1.10;0.80;;;17.50;51.00;;;;;;4944840;28;20171;-85
2022/12/31 01:18:34;;;;;;;1.58;0.68;;;17.60;51.00;;;;;;4960426;28;20214;-85
2022/12/31 01:21:02;;;;;;;1.00;0.70;;;17.50;51.10;;;;;;4944425;28;20176;-85
2022/12/31 01:23:28;;;;;;;1.15;0.80;;;17.60;51.20;;;;;;4945359;28;20168;-85
2022/12/31 01:25:53;;;;;;;0.80;0.63;;;17.60;51.00;;;;;;4976577;28;20160;-86
2022/12/31 01:28:19;;;;;;;1.27;0.82;;;17.60;50.90;;;;;;4976595;28;20314;-85
2022/12/31 01:30:45;;;;;;;1.23;0.90;;;17.60;51.20;;;;;;4960298;28;20152;-85
2022/12/31 01:33:11;;;;;;;1.40;1.00;;;17.50;51.20;;;;;;4960035;28;20182;-85
2022/12/31 01:35:37;;;;;;;0.90;0.80;;;17.50;51.30;;;;;;4977068;28;20230;-85
2022/12/31 01:38:03;;;;;;;0.85;0.70;;;17.50;51.40;;;;;;4960424;28;20164;-85
2022/12/31 01:40:29;;;;;;;1.42;0.70;;;17.50;51.30;;;;;;4960132;28;20164;-85
2022/12/31 01:42:55;;;;;;;1.00;0.80;;;17.50;51.30;;;;;;4976181;28;20191;-85
2022/12/31 01:45:21;;;;;;;1.00;0.75;;;17.40;51.40;;;;;;4960409;28;20175;-85
2022/12/31 01:47:49;;;;;;;0.73;0.60;;;17.40;51.40;;;;;;4960182;28;20156;-85
2022/12/31 01:50:19;;;;;;;1.73;0.95;;;17.40;51.60;;;;;;4944612;28;20172;-85
2022/12/31 01:52:47;;;;;;;2.03;0.75;;;17.40;51.50;;;;;;4976083;28;20645;-85
2022/12/31 01:55:18;;;;;;;0.93;0.73;;;17.40;51.60;;;;;;4948454;28;20176;-85
2022/12/31 01:57:45;;;;;;;1.30;0.85;;;17.40;51.50;;;;;;4969436;28;20159;-85
2022/12/31 02:00:11;;;;;;;1.05;0.70;;;17.40;51.60;;;;;;4985638;28;20184;-85
2022/12/31 02:02:37;;;;;;;1.75;0.85;;;17.40;51.40;;;;;;4969976;28;20192;-85
2022/12/31 02:05:09;;;;;;;1.98;0.80;;;17.40;51.40;;;;;;4968643;28;20215;-85
2022/12/31 02:07:34;;;;;;;1.35;0.85;;;17.40;52.10;;;;;;4947654;28;20212;-85
2022/12/31 02:10:00;;;;;;;0.90;0.68;;;17.40;51.60;;;;;;4997059;28;20557;-85
2022/12/31 02:12:27;;;;;;;1.92;0.70;;;17.40;51.50;;;;;;4979283;28;20611;-85
2022/12/31 02:14:53;;;;;;;1.92;1.00;;;17.30;51.50;;;;;;4996739;28;20175;-85
2022/12/31 02:17:43;;;;;;;1.67;0.95;;;17.40;51.50;;;;;;4963081;28;20175;-85
2022/12/31 02:20:40;;;;;;;1.23;0.80;;;17.40;51.40;;;;;;4965572;28;20171;-84
2022/12/31 02:23:37;;;;;;;2.25;1.08;;;17.40;51.60;;;;;;4979416;28;20184;-85
2022/12/31 02:26:35;;;;;;;2.13;1.00;;;17.40;51.40;;;;;;4968533;28;20242;-85
2022/12/31 02:29:27;;;;;;;1.20;0.90;;;17.40;51.50;;;;;;4965342;28;20171;-85
2022/12/31 02:32:04;;;;;;;1.45;0.80;;;17.30;51.60;;;;;;4980557;28;20255;-85
2022/12/31 02:34:32;;;;;;;1.60;0.80;;;17.30;51.50;;;;;;4963401;28;20167;-85
2022/12/31 02:36:59;;;;;;;0.98;0.88;;;17.30;51.60;;;;;;4947366;28;20203;-84
2022/12/31 02:39:24;;;;;;;1.73;0.93;;;17.30;51.50;;;;;;4947180;28;20179;-85
2022/12/31 02:41:50;;;;;;;1.70;0.80;;;17.30;51.60;;;;;;4978801;28;20187;-85
2022/12/31 02:44:22;;;;;;;1.38;0.70;;;17.30;51.60;;;;;;4978901;28;20164;-85
2022/12/31 02:46:54;;;;;;;2.17;0.90;;;17.30;51.60;;;;;;4962842;28;20186;-85
2022/12/31 02:49:26;;;;;;;1.40;0.90;;;17.30;51.60;;;;;;4962402;28;20653;-85
2022/12/31 02:51:58;;;;;;;2.47;1.00;;;17.30;51.60;;;;;;4978476;28;20176;-85
2022/12/31 02:54:46;;;;;;;1.95;0.85;;;17.30;51.60;;;;;;4963248;28;20266;-85
2022/12/31 02:57:25;;;;;;;1.38;0.85;;;17.30;51.60;;;;;;4949290;28;20194;-85
2022/12/31 03:02:30;;;;;;;1.55;0.80;;;17.30;51.70;;;;;;4965452;28;20191;-85
2022/12/31 03:04:56;;;;;;;1.48;0.88;;;17.30;51.70;;;;;;4978336;28;20171;-85
2022/12/31 03:07:25;;;;;;;2.55;1.05;;;17.20;51.80;;;;;;4961740;28;20170;-85
2022/12/31 03:09:51;;;;;;;1.75;0.80;;;17.30;51.80;;;;;;4962325;28;20619;-84
2022/12/31 03:15:01;;;;;;;1.50;1.00;;;17.30;51.80;;;;;;4966832;28;20203;-85
2022/12/31 03:17:26;;;;;;;1.63;0.90;;;17.30;51.80;;;;;;4946370;28;20168;-84
2022/12/31 03:22:31;;;;;;;1.70;0.80;;;17.30;51.70;;;;;;4965525;28;20279;-85
2022/12/31 03:27:42;;;;;;;2.50;0.95;;;17.30;51.70;;;;;;4965532;28;20152;-85
2022/12/31 03:30:08;;;;;;;1.20;1.00;;;17.30;51.80;;;;;;4946502;28;20203;-85
2022/12/31 03:32:34;;;;;;;1.23;0.80;;;17.30;51.70;;;;;;4962325;28;20260;-85
2022/12/31 03:34:59;;;;;;;1.17;0.80;;;17.30;51.70;;;;;;4961684;28;20599;-85
2022/12/31 03:37:25;;;;;;;0.82;0.70;;;17.30;51.70;;;;;;4977727;28;20239;-85
2022/12/31 03:39:52;;;;;;;1.58;0.80;;;17.30;51.80;;;;;;4977815;28;20164;-85
2022/12/31 03:42:17;;;;;;;1.08;0.90;;;17.30;51.90;;;;;;4945467;28;20290;-85
2022/12/31 03:44:43;;;;;;;2.25;0.98;;;17.30;51.80;;;;;;4977759;28;20261;-85
2022/12/31 03:47:09;;;;;;;3.38;0.68;;;17.20;51.90;;;;;;4994904;28;20156;-85
2022/12/31 03:49:34;;;;;;;1.58;0.80;;;17.20;51.90;;;;;;4962004;28;20160;-85
2022/12/31 03:52:02;;;;;;;2.28;0.90;;;17.30;51.80;;;;;;4961538;28;20160;-85
2022/12/31 03:54:28;;;;;;;1.10;0.70;;;17.30;51.80;;;;;;4977605;28;20152;-85
2022/12/31 03:56:53;;;;;;;1.00;0.90;;;17.30;52.00;;;;;;4945426;28;20175;-85
2022/12/31 03:59:19;;;;;;;1.38;1.00;;;17.20;51.80;;;;;;4961672;28;20571;-85
2022/12/31 04:01:45;;;;;;;1.73;0.90;;;17.20;51.90;;;;;;4977164;28;20194;-85
2022/12/31 04:04:11;;;;;;;1.10;0.80;;;17.20;51.90;;;;;;4977275;28;20157;-84
2022/12/31 04:06:36;;;;;;;1.67;1.00;;;17.20;51.90;;;;;;4977284;28;20160;-85
2022/12/31 04:09:02;;;;;;;1.35;0.80;;;17.20;51.80;;;;;;4977013;28;20279;-85
2022/12/31 04:11:27;;;;;;;1.10;0.80;;;17.20;52.00;;;;;;4961136;28;20160;-85
2022/12/31 04:13:53;;;;;;;1.80;1.00;;;17.20;52.00;;;;;;4961001;28;20539;-85
2022/12/31 04:16:19;;;;;;;1.00;0.80;;;17.20;52.00;;;;;;4960975;28;20164;-85
2022/12/31 04:18:44;;;;;;;1.58;1.05;;;17.20;52.00;;;;;;4960910;28;20168;-85
2022/12/31 04:21:10;;;;;;;0.85;0.80;;;17.20;52.10;;;;;;4944877;28;20168;-85
2022/12/31 04:23:36;;;;;;;1.23;0.88;;;17.10;52.10;;;;;;4960956;28;20164;-85
2022/12/31 04:26:02;;;;;;;1.45;0.80;;;17.20;52.10;;;;;;4976838;28;20259;-85
2022/12/31 04:28:27;;;;;;;1.10;0.75;;;17.20;52.00;;;;;;4976908;28;20156;-85
2022/12/31 04:30:53;;;;;;;0.90;0.80;;;17.20;52.00;;;;;;4944801;28;20172;-85
2022/12/31 04:33:19;;;;;;;1.25;0.90;;;17.20;52.00;;;;;;4960703;28;20172;-85
2022/12/31 04:35:44;;;;;;;2.10;1.00;;;17.20;52.00;;;;;;4944671;28;20172;-85
2022/12/31 04:38:10;;;;;;;0.85;0.70;;;17.20;52.10;;;;;;4961005;28;20167;-84
2022/12/31 04:41:15;;;;;;;1.02;0.93;;;17.20;52.10;;;;;;4976657;28;20167;-85
2022/12/31 04:43:21;;;;;;;1.15;0.90;;;17.20;51.90;;;;;;4993770;28;20207;-85
2022/12/31 04:45:47;;;;;;;1.27;0.90;;;17.20;51.90;;;;;;4961318;28;20689;-85
2022/12/31 04:48:12;;;;;;;1.63;1.00;;;17.20;51.90;;;;;;4961314;28;20651;-85
2022/12/31 04:50:38;;;;;;;1.27;0.80;;;17.20;51.90;;;;;;4960699;28;20160;-85
2022/12/31 04:53:04;;;;;;;1.67;0.85;;;17.20;51.80;;;;;;4960949;28;20156;-85
2022/12/31 04:55:30;;;;;;;1.67;0.80;;;17.20;52.00;;;;;;4944636;28;20226;-86
2022/12/31 04:57:55;;;;;;;2.40;1.08;;;17.20;51.90;;;;;;4960917;28;20172;-85
2022/12/31 05:00:21;;;;;;;1.02;0.70;;;17.20;52.10;;;;;;4976830;28;20182;-85
2022/12/31 05:02:47;;;;;;;1.05;0.80;;;17.20;52.00;;;;;;4944315;28;20208;-85
2022/12/31 05:05:12;;;;;;;0.75;0.60;;;17.20;52.10;;;;;;4976880;28;20156;-85
2022/12/31 05:07:38;;;;;;;1.20;0.80;;;17.20;52.00;;;;;;4976483;28;20235;-85
2022/12/31 05:10:04;;;;;;;1.40;0.85;;;17.20;52.00;;;;;;4976461;28;20223;-85
2022/12/31 05:12:30;;;;;;;1.83;1.00;;;17.20;52.10;;;;;;4976499;28;20167;-85
2022/12/31 05:14:56;;;;;;;1.48;0.90;;;17.20;52.10;;;;;;4960380;28;20164;-85
2022/12/31 05:17:21;;;;;;;1.80;1.20;;;17.20;52.00;;;;;;4976358;28;20244;-85
2022/12/31 05:19:47;;;;;;;1.10;0.80;;;17.20;52.00;;;;;;4944350;28;20179;-85
2022/12/31 05:24:51;;;;;;;2.33;1.00;;;17.20;52.00;;;;;;4978026;28;20192;-85
2022/12/31 05:27:16;;;;;;;1.02;0.75;;;17.20;52.00;;;;;;4944650;28;20168;-85
2022/12/31 05:29:42;;;;;;;0.90;0.90;;;17.20;52.00;;;;;;4976178;28;20167;-85
2022/12/31 05:32:08;;;;;;;1.10;0.80;;;17.20;51.90;;;;;;4963365;28;20176;-86
2022/12/31 05:34:33;;;;;;;1.50;0.82;;;17.20;51.90;;;;;;4980028;28;20157;-85
2022/12/31 05:36:59;;;;;;;1.42;0.70;;;17.20;52.10;;;;;;4997355;28;20160;-85
2022/12/31 05:39:25;;;;;;;1.00;0.90;;;17.20;52.00;;;;;;4963757;28;20311;-85
2022/12/31 05:41:51;;;;;;;2.25;1.02;;;17.20;52.00;;;;;;4979845;28;20234;-85
2022/12/31 05:44:17;;;;;;;1.10;1.00;;;17.20;52.10;;;;;;4963782;28;20172;-85
2022/12/31 05:46:44;;;;;;;1.00;0.63;;;17.20;52.10;;;;;;4963579;28;20179;-85
2022/12/31 05:49:09;;;;;;;2.15;1.08;;;17.10;52.10;;;;;;4979612;28;20210;-85
2022/12/31 05:51:35;;;;;;;1.58;1.15;;;17.20;52.10;;;;;;4979760;28;20184;-85
2022/12/31 05:54:01;;;;;;;2.45;0.98;;;17.20;52.10;;;;;;4963836;28;20184;-85
2022/12/31 05:56:27;;;;;;;2.08;0.85;;;17.20;52.10;;;;;;4964045;28;20262;-85
2022/12/31 05:58:52;;;;;;;2.35;1.00;;;17.20;52.20;;;;;;4963503;28;20235;-84
2022/12/31 06:01:18;;;;;;;1.38;0.80;;;17.20;52.80;;;;;;4963318;28;20506;-85
2022/12/31 06:03:44;;;;;;;1.08;0.82;;;17.20;52.10;;;;;;4979551;28;20159;-85
2022/12/31 06:06:10;;;;;;;1.60;0.90;;;17.20;52.10;;;;;;4963746;28;20207;-85
2022/12/31 06:08:35;;;;;;;1.05;0.90;;;17.20;52.10;;;;;;4963170;28;20225;-85
2022/12/31 06:11:01;;;;;;;1.90;1.00;;;17.10;52.10;;;;;;4979386;28;20243;-85
2022/12/31 06:13:27;;;;;;;1.55;1.05;;;17.10;52.20;;;;;;4947078;28;20211;-84
2022/12/31 06:15:52;;;;;;;2.00;0.88;;;17.20;52.20;;;;;;4963129;28;20182;-84
2022/12/31 06:18:18;;;;;;;0.73;0.70;;;17.20;52.20;;;;;;4947715;28;20532;-85
2022/12/31 06:20:44;;;;;;;1.90;0.98;;;17.10;52.20;;;;;;4979204;28;20161;-84
2022/12/31 06:23:10;;;;;;;1.15;0.90;;;17.20;52.20;;;;;;4963016;28;20188;-85
2022/12/31 06:25:36;;;;;;;1.25;0.73;;;17.20;52.20;;;;;;4963038;28;20203;-85
2022/12/31 06:28:03;;;;;;;1.40;0.90;;;17.10;52.20;;;;;;4947762;28;20168;-85
2022/12/31 06:30:29;;;;;;;0.88;0.70;;;17.10;52.20;;;;;;4978961;28;20239;-85
2022/12/31 06:32:55;;;;;;;3.72;1.15;;;17.10;52.10;;;;;;4978938;28;20250;-85
2022/12/31 06:35:20;;;;;;;1.30;0.88;;;17.10;52.20;;;;;;4963365;28;20239;-85
2022/12/31 06:37:47;;;;;;;1.48;0.88;;;17.20;52.20;;;;;;4962794;28;20255;-85
2022/12/31 06:40:13;;;;;;;1.55;0.80;;;17.20;52.20;;;;;;4963034;28;20226;-85
2022/12/31 06:42:41;;;;;;;0.93;0.85;;;17.20;52.10;;;;;;4978646;28;20646;-85
2022/12/31 06:45:07;;;;;;;1.55;0.98;;;17.20;52.20;;;;;;4947309;28;20172;-85
2022/12/31 06:47:33;;;;;;;1.20;0.80;;;17.20;52.20;;;;;;4947121;28;20528;-85
2022/12/31 06:49:59;;;;;;;1.42;0.80;;;17.10;52.20;;;;;;4978586;28;20227;-85
2022/12/31 06:52:25;;;;;;;1.60;0.95;;;17.10;52.10;;;;;;4946489;28;20172;-85
2022/12/31 06:54:51;;;;;;;2.40;1.23;;;17.20;52.20;;;;;;4946469;28;20168;-85
2022/12/31 06:57:17;;;;;;;1.45;1.00;;;17.10;52.30;;;;;;4978551;28;20168;-85
2022/12/31 06:59:43;;;;;;;2.10;1.05;;;17.10;52.30;;;;;;4962656;28;20172;-85
2022/12/31 07:02:28;;;;;;;1.02;0.95;;;17.10;52.20;;;;;;4962636;28;20650;-85
2022/12/31 07:05:13;;;;;;;0.82;0.70;;;17.10;52.30;;;;;;4980177;28;20156;-85
2022/12/31 07:08:04;;;;;;;1.25;0.80;;;17.20;52.50;;;;;;4962344;28;20760;-85
2022/12/31 07:10:48;;;;;;;3.40;0.98;;;17.00;52.40;;;;;;4978198;28;20164;-85
2022/12/31 07:13:53;;;;;;;2.00;1.00;;;17.10;52.40;;;;;;4962651;28;20512;-85
2022/12/31 07:16:34;;;;;;;1.38;1.00;;;17.10;52.50;;;;;;4954168;28;20690;-85
2022/12/31 07:19:24;;;;;;;0.77;0.65;;;17.10;52.50;;;;;;4964616;28;20192;-84
2022/12/31 07:21:50;;;;;;;2.38;1.10;;;17.10;52.40;;;;;;4978521;28;20226;-85
2022/12/31 07:24:16;;;;;;;1.33;0.80;;;17.10;52.40;;;;;;4946193;28;20673;-85
2022/12/31 07:27:14;;;;;;;1.85;1.00;;;17.10;52.50;;;;;;4962030;28;20172;-84
2022/12/31 07:30:01;;;;;;;1.40;0.75;;;17.10;52.30;;;;;;4995296;28;20152;-85
2022/12/31 07:33:04;;;;;;;0.90;0.80;;;17.10;52.40;;;;;;4977946;28;20260;-85
2022/12/31 07:36:04;;;;;;;1.95;0.88;;;17.00;52.30;;;;;;4995543;28;20217;-85
2022/12/31 07:38:53;;;;;;;1.55;0.90;;;17.10;52.40;;;;;;4995426;28;20160;-85
2022/12/31 07:41:42;;;;;;;1.58;0.90;;;17.10;52.50;;;;;;4981271;28;20262;-84
2022/12/31 07:44:24;;;;;;;1.90;0.88;;;17.10;52.40;;;;;;4962297;28;20623;-85
2022/12/31 07:46:58;;;;;;;1.63;0.98;;;17.10;52.30;;;;;;4979191;28;20167;-85
2022/12/31 07:49:24;;;;;;;1.30;1.00;;;17.10;52.30;;;;;;4961661;28;20227;-85
2022/12/31 07:51:50;;;;;;;1.10;0.70;;;17.10;52.50;;;;;;4977904;28;20254;-85
2022/12/31 07:54:18;;;;;;;1.60;1.13;;;17.10;52.50;;;;;;4977025;28;20243;-85
2022/12/31 07:56:44;;;;;;;1.55;0.90;;;17.10;52.50;;;;;;4945268;28;20175;-85
2022/12/31 07:59:35;;;;;;;1.33;0.85;;;17.00;52.50;;;;;;4961651;28;20629;-85
2022/12/31 08:02:12;;;;;;;1.60;0.80;;;17.10;52.50;;;;;;4963000;28;20190;-85
2022/12/31 08:04:59;;;;;;;1.17;0.77;;;17.10;52.50;;;;;;4962567;28;20686;-84
2022/12/31 08:07:34;;;;;;;2.08;1.00;;;17.10;52.50;;;;;;4994412;28;20242;-85
2022/12/31 08:10:05;;;;;;;1.00;0.88;;;17.10;52.40;;;;;;4962743;28;20163;-85
2022/12/31 08:12:33;;;;;;;2.72;1.00;;;17.10;52.50;;;;;;4962667;28;20227;-85
2022/12/31 08:14:59;;;;;;;1.23;0.82;;;17.10;52.50;;;;;;4980876;28;20160;-85
2022/12/31 08:17:25;;;;;;;1.00;0.85;;;17.10;52.60;;;;;;4967645;28;20160;-85
2022/12/31 08:19:51;;;;;;;1.27;0.80;;;17.00;52.50;;;;;;4970253;28;20587;-85
2022/12/31 08:22:48;;;;;;;0.70;0.70;;;17.10;52.50;;;;;;4987243;28;20195;-85
2022/12/31 08:25:26;;;;;;;0.93;0.70;;;17.10;52.50;;;;;;4958408;28;20214;-85
2022/12/31 08:28:24;;;;;;;1.33;0.90;;;17.00;52.50;;;;;;4966287;28;20622;-85
2022/12/31 08:31:14;;;;;;;1.08;0.85;;;17.10;52.60;;;;;;4981675;28;20167;-85
2022/12/31 08:33:54;;;;;;;1.70;0.88;;;17.20;52.40;;;;;;4979042;28;20156;-85
2022/12/31 08:36:37;;;;;;;1.35;0.93;;;17.30;52.20;;;;;;4962069;28;20267;-85
2022/12/31 08:39:34;;;;;;;1.38;0.90;;;17.30;52.10;;;;;;4945785;28;20212;-84
2022/12/31 08:42:01;;;;;;;1.08;0.63;;;17.40;51.90;;;;;;4979422;28;20188;-85
2022/12/31 08:44:52;;;;;;;1.35;0.75;;;17.40;51.70;;;;;;4960968;28;20152;-85
2022/12/31 08:47:44;;;;;;;0.90;0.77;;;17.40;51.60;;;;;;4960494;28;20179;-84
2022/12/31 08:50:14;;;;;;;0.98;0.77;;;17.50;51.70;;;;;;4963234;28;20176;-85
2022/12/31 08:52:40;;;;;;;1.27;0.90;;;17.40;51.60;;;;;;4960722;28;20183;-85
2022/12/31 08:55:07;;;;;;;0.75;0.73;;;17.50;51.60;;;;;;4993936;28;20607;-85
2022/12/31 08:57:52;;;;;;;1.05;0.70;;;17.50;51.60;;;;;;4961064;28;20215;-85
2022/12/31 09:00:19;;;;;;;0.70;0.68;;;17.50;51.60;;;;;;4962804;28;20180;-86
2022/12/31 09:02:55;;;;;;;0.98;0.68;;;17.50;51.50;;;;;;4960393;28;20205;-84
2022/12/31 09:05:30;;;;;;;0.75;0.50;;;17.50;51.50;;;;;;4961289;28;20172;-86
2022/12/31 09:08:33;;;;;;;0.55;0.55;;;17.50;51.40;;;;;;4965098;28;20223;-85
2022/12/31 09:11:22;;;;;;;0.82;0.63;;;17.50;51.40;;;;;;4969423;28;20167;-85
2022/12/31 09:14:02;;;;;;;0.95;0.70;;;17.50;51.40;;;;;;4998757;28;20203;-85
2022/12/31 09:16:45;;;;;;;1.10;0.80;;;17.50;51.40;;;;;;4965172;28;20176;-85
2022/12/31 09:19:11;;;;;;;0.93;0.77;;;17.60;51.40;;;;;;4980167;28;20174;-85
2022/12/31 09:21:40;;;;;;;0.88;0.60;;;17.60;51.50;;;;;;4964454;28;20211;-85
2022/12/31 09:24:06;;;;;;;0.80;0.60;;;17.50;51.30;;;;;;4980404;28;20539;-85
2022/12/31 09:26:46;;;;;;;0.60;0.50;;;17.60;51.30;;;;;;4964279;28;20658;-84
2022/12/31 09:29:26;;;;;;;2.20;0.77;;;17.60;51.30;;;;;;4981511;28;20153;-85
2022/12/31 09:31:59;;;;;;;0.80;0.63;;;17.60;51.30;;;;;;4964178;28;20178;-85
2022/12/31 09:34:46;;;;;;;0.65;0.65;;;17.60;51.30;;;;;;4963738;28;20227;-85
2022/12/31 09:37:19;;;;;;;0.52;0.52;;;17.50;51.40;;;;;;4983187;28;20153;-85
2022/12/31 09:39:46;;;;;;;1.38;0.65;;;17.60;51.40;;;;;;4948281;28;20238;-85
2022/12/31 09:42:29;;;;;;;0.82;0.80;;;17.60;51.40;;;;;;4979609;28;20195;-84
2022/12/31 09:45:23;;;;;;;0.95;0.70;;;17.60;51.40;;;;;;4949182;28;20169;-85
2022/12/31 09:48:23;;;;;;;0.73;0.60;;;17.60;51.30;;;;;;4983018;28;20196;-85
2022/12/31 09:51:13;;;;;;;0.68;0.60;;;17.60;51.20;;;;;;4996971;28;20234;-85
2022/12/31 09:53:53;;;;;;;1.13;0.65;;;17.60;51.20;;;;;;4982290;28;20255;-87
2022/12/31 09:56:25;;;;;;;1.27;0.68;;;17.70;51.20;;;;;;4965152;28;20646;-84
2022/12/31 09:59:05;;;;;;;0.70;0.70;;;17.70;51.20;;;;;;4963779;28;20210;-85
2022/12/31 10:01:47;;;;;;;0.65;0.50;;;17.70;51.20;;;;;;4979496;28;20156;-85
2022/12/31 10:04:53;;;;;;;1.15;0.70;;;17.70;51.20;;;;;;4979526;28;20149;-85
2022/12/31 10:07:53;;;;;;;0.82;0.63;;;17.70;51.20;;;;;;4968637;28;20175;-85
2022/12/31 10:10:25;;;;;;;0.70;0.52;;;17.70;51.20;;;;;;4979426;28;20634;-85
2022/12/31 10:13:21;;;;;;;0.77;0.60;;;17.60;51.20;;;;;;4963660;28;20603;-85
2022/12/31 10:16:05;;;;;;;1.13;0.63;;;17.70;51.30;;;;;;4952143;28;20182;-85
2022/12/31 10:19:03;;;;;;;0.75;0.60;;;17.70;51.30;;;;;;4963516;28;20172;-85
2022/12/31 10:21:43;;;;;;;1.30;0.60;;;17.70;51.20;;;;;;4979185;28;20223;-85
2022/12/31 10:24:33;;;;;;;0.98;0.70;;;17.70;51.20;;;;;;4980870;28;20231;-85
2022/12/31 10:27:27;;;;;;;0.77;0.65;;;17.70;51.20;;;;;;4980901;28;20149;-85
2022/12/31 10:30:02;;;;;;;0.77;0.50;;;17.70;51.20;;;;;;4963546;28;20258;-86
2022/12/31 10:32:38;;;;;;;0.95;0.65;;;17.70;51.20;;;;;;4963839;28;20160;-85
2022/12/31 10:35:26;;;;;;;0.63;0.50;;;17.60;51.10;;;;;;4979910;28;20681;-85
2022/12/31 10:38:15;;;;;;;0.70;0.60;;;17.70;51.10;;;;;;4948949;28;20182;-85
2022/12/31 10:41:09;;;;;;;1.73;0.70;;;17.60;51.10;;;;;;4952245;28;20585;-85
2022/12/31 10:44:13;;;;;;;1.05;0.57;;;17.70;51.10;;;;;;4978866;28;20195;-85
2022/12/31 10:47:13;;;;;;;1.20;0.70;;;17.70;51.10;;;;;;4979059;28;20188;-85
2022/12/31 10:50:13;;;;;;;0.88;0.50;;;17.70;51.10;;;;;;4996536;28;20559;-85
2022/12/31 10:53:06;;;;;;;1.02;0.73;;;17.70;51.00;;;;;;4967699;28;20186;-85
2022/12/31 10:55:53;;;;;;;0.90;0.70;;;17.70;51.10;;;;;;4952706;28;20230;-85
2022/12/31 10:58:46;;;;;;;0.88;0.50;;;17.70;51.10;;;;;;4947762;28;20653;-85
2022/12/31 11:01:33;;;;;;;0.63;0.40;;;17.70;51.00;;;;;;4951765;28;20180;-86
2022/12/31 11:04:19;;;;;;;0.63;0.50;;;17.70;51.10;;;;;;4981053;28;20186;-85
2022/12/31 11:07:02;;;;;;;1.98;0.75;;;17.70;51.10;;;;;;4978821;28;20183;-85
2022/12/31 11:10:02;;;;;;;0.63;0.50;;;17.70;51.00;;;;;;4963570;28;20593;-84
2022/12/31 11:13:02;;;;;;;0.88;0.50;;;17.70;51.00;;;;;;4995847;28;20183;-85
2022/12/31 11:15:37;;;;;;;1.23;0.60;;;17.70;50.90;;;;;;4978374;28;20541;-85
2022/12/31 11:18:30;;;;;;;1.35;0.60;;;17.70;51.10;;;;;;4962640;28;20258;-85
2022/12/31 11:21:14;;;;;;;0.88;0.50;;;17.80;51.00;;;;;;4962147;28;20179;-85
2022/12/31 11:24:01;;;;;;;1.25;0.77;;;17.80;50.90;;;;;;4978082;28;20222;-84
2022/12/31 11:26:36;;;;;;;0.77;0.57;;;17.70;51.00;;;;;;4962106;28;20195;-85
2022/12/31 11:29:32;;;;;;;0.73;0.60;;;17.80;51.10;;;;;;4961686;28;20276;-85
2022/12/31 11:32:06;;;;;;;1.55;0.52;;;17.80;51.00;;;;;;4965886;28;20182;-85
2022/12/31 11:35:02;;;;;;;0.77;0.60;;;17.70;51.00;;;;;;4945841;28;20238;-84
2022/12/31 11:37:46;;;;;;;0.85;0.50;;;17.80;50.90;;;;;;4978451;28;20180;-85
2022/12/31 11:40:36;;;;;;;1.27;0.60;;;17.70;50.90;;;;;;4961661;28;20172;-85
2022/12/31 11:43:34;;;;;;;1.00;0.70;;;17.70;51.10;;;;;;4949053;28;20286;-85
2022/12/31 11:46:32;;;;;;;0.50;0.50;;;17.70;51.10;;;;;;4995281;28;20650;-85
2022/12/31 11:49:17;;;;;;;0.50;0.50;;;17.70;51.00;;;;;;4977749;28;20179;-86
2022/12/31 11:51:58;;;;;;;0.88;0.50;;;17.80;51.00;;;;;;4962420;28;20206;-85
2022/12/31 11:54:41;;;;;;;0.82;0.52;;;17.80;51.10;;;;;;4977679;28;20156;-85
2022/12/31 11:57:35;;;;;;;0.73;0.50;;;17.80;51.00;;;;;;4946799;28;20168;-85
2022/12/31 12:00:21;;;;;;;0.85;0.68;;;17.70;51.00;;;;;;4965158;28;20195;-85
2022/12/31 12:03:02;;;;;;;1.08;0.60;;;17.70;51.00;;;;;;4977318;28;20199;-85
2022/12/31 12:05:28;;;;;;;1.33;0.60;;;17.80;50.80;;;;;;4963681;28;20168;-86
2022/12/31 12:07:54;;;;;;;0.70;0.50;;;17.80;50.90;;;;;;4945331;28;20227;-85
2022/12/31 12:10:24;;;;;;;0.68;0.47;;;17.80;51.00;;;;;;4945164;28;20168;-85
2022/12/31 12:12:50;;;;;;;0.75;0.40;;;17.70;50.80;;;;;;4946082;28;20203;-85
2022/12/31 12:15:20;;;;;;;1.23;0.60;;;17.80;51.00;;;;;;4961388;28;20611;-85
2022/12/31 12:17:50;;;;;;;0.82;0.50;;;17.80;51.00;;;;;;4961630;28;20183;-85
2022/12/31 12:20:19;;;;;;;0.75;0.60;;;17.80;50.90;;;;;;4961613;28;20160;-85
2022/12/31 12:22:50;;;;;;;0.77;0.43;;;17.80;50.90;;;;;;4945768;28;20249;-85
2022/12/31 12:25:19;;;;;;;0.45;0.40;;;17.80;50.90;;;;;;4945232;28;20172;-85
2022/12/31 12:27:48;;;;;;;0.70;0.60;;;17.80;50.90;;;;;;4961490;28;20290;-84
2022/12/31 12:30:20;;;;;;;0.52;0.50;;;17.70;50.80;;;;;;4961258;28;20521;-85
2022/12/31 12:32:53;;;;;;;0.98;0.50;;;17.80;51.00;;;;;;4945304;28;20182;-86
2022/12/31 12:35:23;;;;;;;0.60;0.47;;;17.80;50.80;;;;;;4961267;28;20160;-85
2022/12/31 12:37:59;;;;;;;0.40;0.35;;;17.80;50.90;;;;;;4945426;28;20642;-84
2022/12/31 12:40:25;;;;;;;0.77;0.50;;;17.70;50.90;;;;;;4961030;28;20246;-86
2022/12/31 12:42:52;;;;;;;0.50;0.50;;;17.80;50.90;;;;;;4945264;28;20293;-85
2022/12/31 12:45:28;;;;;;;0.65;0.60;;;17.70;50.90;;;;;;4961094;28;20260;-86
2022/12/31 12:47:58;;;;;;;0.57;0.43;;;17.70;50.90;;;;;;4961800;28;20184;-84
2022/12/31 12:50:31;;;;;;;0.98;0.50;;;17.80;50.90;;;;;;4945169;28;20174;-84
2022/12/31 12:53:32;;;;;;;0.63;0.50;;;17.80;50.90;;;;;;4946218;28;20267;-85
2022/12/31 12:56:18;;;;;;;1.05;0.63;;;17.80;50.80;;;;;;4976381;28;20179;-85
2022/12/31 12:58:59;;;;;;;1.00;0.50;;;17.80;50.90;;;;;;4960874;28;20219;-85
2022/12/31 13:01:41;;;;;;;0.77;0.60;;;17.80;50.80;;;;;;4945376;28;20174;-85
2022/12/31 13:04:42;;;;;;;0.70;0.50;;;17.80;50.90;;;;;;4961362;28;20234;-84
2022/12/31 13:07:25;;;;;;;0.40;0.40;;;17.80;50.80;;;;;;4994019;28;20179;-85
2022/12/31 13:10:31;;;;;;;0.90;0.50;;;17.80;50.70;;;;;;4957768;28;20157;-86
2022/12/31 13:13:22;;;;;;;0.98;0.50;;;17.90;50.80;;;;;;4960372;28;20184;-85
2022/12/31 13:16:02;;;;;;;0.52;0.47;;;17.80;50.80;;;;;;4928880;28;20172;-85
2022/12/31 13:18:49;;;;;;;0.93;0.40;;;17.80;50.80;;;;;;4926790;28;20667;-85
2022/12/31 13:21:38;;;;;;;0.55;0.45;;;17.80;50.80;;;;;;4957190;28;20160;-85
2022/12/31 13:24:42;;;;;;;0.38;0.38;;;17.80;50.90;;;;;;4928399;28;20583;-85
2022/12/31 13:27:25;;;;;;;0.65;0.50;;;17.80;50.80;;;;;;4960252;28;20171;-86
2022/12/31 13:29:51;;;;;;;0.63;0.45;;;17.80;50.90;;;;;;4941460;28;20259;-86
2022/12/31 13:32:20;;;;;;;0.50;0.47;;;17.80;50.80;;;;;;4941966;28;20208;-85
2022/12/31 13:34:48;;;;;;;0.52;0.40;;;17.90;51.00;;;;;;4925472;28;20169;-85
2022/12/31 13:37:25;;;;;;;0.52;0.30;;;17.80;50.80;;;;;;4941436;28;20161;-85
2022/12/31 13:39:56;;;;;;;0.55;0.50;;;17.80;50.90;;;;;;4925810;28;20547;-86